Sarver, Pennsylvania
Current Conditions -  °F | °C
As of 11:55 AM on Monday 22 Dec 2014 (Local Time) from KBTP Reporting Station
Overcast Overcast  
Wind Chill: 28°   Ceiling: 4600
Heat Index: 34°   Visibility: 10mi
Dew Point: 27°   Wind: 7mph
Humidity: 75%   Direction: 90°E
Pressure: 30.09"   Gusts: NA
Location:  40.73°N, 79.75°W
Report Text: KBTP 221655Z AUTO 09006KT 10SM OVC046 01/M03 A3009 RMK AO1
Loading
Personal Weather Stations






























Interactive Weather Map New forecast layout! Learn more

10-Day Weather Forecast

Advertisements
Track Severe Weather on mobile